Time;durP1;ratioP1;P1;durP2;ratioP2;P2;SDS_P1;SDS_P2;PMS_P1;PMS_P2;Temp;Humidity;BMP_temperature;BMP_pressure;BME280_temperature;BME280_humidity;BME280_pressure;Samples;Min_cycle;Max_cycle;Signal;HPM_P1;HPM_P2
2024/03/01 00:01:42;;;;;;;8.73;5.18;;;14.70;96.70;;;;;;4969054;28;20054;-71
2024/03/01 00:04:12;;;;;;;8.20;4.68;;;14.70;96.70;;;;;;4978187;28;20050;-71
2024/03/01 00:06:41;;;;;;;8.93;5.22;;;14.70;96.70;;;;;;4972550;28;20419;-71
2024/03/01 00:09:09;;;;;;;8.55;5.00;;;14.70;96.70;;;;;;4985273;28;20065;-71
2024/03/01 00:11:38;;;;;;;9.30;4.72;;;14.70;96.70;;;;;;4990469;28;20034;-72
2024/03/01 00:14:07;;;;;;;6.97;5.18;;;14.60;96.70;;;;;;4970829;28;20141;-72
2024/03/01 00:16:35;;;;;;;5.82;4.95;;;14.50;96.70;;;;;;4998909;28;20046;-71
2024/03/01 00:19:06;;;;;;;7.70;4.80;;;14.30;96.70;;;;;;4988391;28;20760;-71
2024/03/01 00:21:36;;;;;;;6.20;4.82;;;14.30;96.70;;;;;;4976107;28;20093;-71
2024/03/01 00:24:08;;;;;;;8.23;4.60;;;14.30;96.70;;;;;;4979224;28;20134;-72
2024/03/01 00:26:37;;;;;;;7.65;5.07;;;14.20;96.70;;;;;;4987102;28;20408;-71
2024/03/01 00:29:09;;;;;;;6.60;4.38;;;14.10;96.70;;;;;;4979430;28;20054;-72
2024/03/01 00:31:37;;;;;;;10.57;5.18;;;14.20;96.70;;;;;;4970462;28;20137;-72
2024/03/01 00:34:08;;;;;;;6.95;4.75;;;14.20;96.70;;;;;;4985077;28;20073;-71
2024/03/01 00:36:38;;;;;;;7.35;4.20;;;14.10;96.70;;;;;;5005964;28;20141;-71
2024/03/01 00:39:08;;;;;;;9.65;4.90;;;14.00;96.70;;;;;;4982435;28;20069;-71
2024/03/01 00:41:39;;;;;;;10.90;5.00;;;14.00;96.70;;;;;;4969525;28;20046;-71
2024/03/01 00:44:09;;;;;;;5.43;4.30;;;14.00;96.70;;;;;;4991388;28;20789;-71
2024/03/01 00:46:38;;;;;;;5.40;4.32;;;13.90;96.70;;;;;;4964619;28;20066;-71
2024/03/01 00:49:08;;;;;;;8.35;4.70;;;13.90;96.70;;;;;;4977806;28;20115;-71
2024/03/01 00:51:39;;;;;;;6.57;4.25;;;13.90;96.70;;;;;;4980286;28;20061;-71
2024/03/01 00:54:08;;;;;;;8.52;4.88;;;13.90;96.70;;;;;;5001483;28;20050;-71
2024/03/01 00:56:37;;;;;;;7.25;4.43;;;14.10;96.70;;;;;;4995111;28;20053;-71
2024/03/01 00:59:06;;;;;;;8.63;4.95;;;14.00;96.70;;;;;;4991282;28;20109;-71
2024/03/01 01:01:35;;;;;;;7.80;4.70;;;13.90;96.70;;;;;;4989293;28;20149;-71
2024/03/01 01:04:03;;;;;;;9.05;5.05;;;13.90;96.70;;;;;;4979633;28;20050;-71
2024/03/01 01:06:35;;;;;;;8.10;4.47;;;13.90;96.70;;;;;;4997475;28;20101;-71
2024/03/01 01:09:03;;;;;;;7.88;4.63;;;13.90;96.70;;;;;;4978162;28;20060;-71
2024/03/01 01:11:34;;;;;;;6.22;4.20;;;13.80;96.70;;;;;;4976857;28;20129;-71
2024/03/01 01:14:02;;;;;;;9.43;4.80;;;13.80;96.70;;;;;;4966194;28;20081;-71
2024/03/01 01:16:34;;;;;;;7.97;4.53;;;13.80;96.70;;;;;;4972715;28;20046;-71
2024/03/01 01:19:02;;;;;;;8.23;4.55;;;13.70;96.70;;;;;;4972240;28;20055;-71
2024/03/01 01:21:33;;;;;;;6.63;4.95;;;13.60;96.70;;;;;;4964373;28;20044;-71
2024/03/01 01:24:03;;;;;;;6.35;4.38;;;13.60;96.70;;;;;;4981608;28;20109;-71
2024/03/01 01:26:32;;;;;;;10.82;5.00;;;13.50;96.70;;;;;;4982547;28;20054;-71
2024/03/01 01:29:02;;;;;;;6.30;4.40;;;13.40;96.70;;;;;;4980147;28;20471;-71
2024/03/01 01:31:34;;;;;;;6.55;4.55;;;13.40;96.70;;;;;;4988671;28;20081;-71
2024/03/01 01:34:04;;;;;;;7.93;4.57;;;13.40;96.70;;;;;;4990127;28;20076;-71
2024/03/01 01:36:34;;;;;;;8.15;4.20;;;13.30;96.70;;;;;;4979872;28;20050;-72
2024/03/01 01:39:04;;;;;;;8.98;5.07;;;13.30;96.70;;;;;;4984010;28;20416;-71
2024/03/01 01:41:34;;;;;;;8.82;4.68;;;13.30;96.70;;;;;;4976835;28;20050;-71
2024/03/01 01:44:02;;;;;;;6.65;5.22;;;13.30;96.70;;;;;;4977380;28;20066;-71
2024/03/01 01:46:31;;;;;;;6.15;4.65;;;13.30;96.70;;;;;;4975341;28;20579;-71
2024/03/01 01:49:03;;;;;;;7.30;5.45;;;13.20;96.70;;;;;;4977986;28;20053;-71
2024/03/01 01:51:36;;;;;;;6.30;5.20;;;13.30;96.70;;;;;;4994596;28;20124;-71
2024/03/01 01:54:06;;;;;;;6.20;4.57;;;13.30;96.70;;;;;;4977373;28;20066;-71
2024/03/01 01:56:34;;;;;;;7.88;5.35;;;13.30;96.70;;;;;;4964601;28;20451;-71
2024/03/01 01:59:04;;;;;;;12.02;5.30;;;13.30;96.70;;;;;;4994499;28;20057;-71
2024/03/01 02:01:33;;;;;;;8.60;5.55;;;13.30;96.70;;;;;;4980822;28;20138;-71
2024/03/01 02:04:04;;;;;;;7.95;5.30;;;13.30;96.70;;;;;;4986739;28;20054;-71
2024/03/01 02:06:35;;;;;;;9.30;5.35;;;13.40;96.70;;;;;;4973498;28;20197;-71
2024/03/01 02:09:12;;;;;;;9.93;5.25;;;13.40;96.70;;;;;;4981215;28;20101;-71
2024/03/01 02:11:41;;;;;;;7.05;4.70;;;13.50;96.70;;;;;;4966668;28;20575;-71
2024/03/01 02:14:10;;;;;;;6.97;5.25;;;13.70;96.70;;;;;;4980303;28;20058;-71
2024/03/01 02:16:40;;;;;;;6.53;4.85;;;13.80;96.70;;;;;;4995210;28;20053;-71
2024/03/01 02:19:14;;;;;;;8.82;5.40;;;13.80;96.70;;;;;;4997505;28;20579;-71
2024/03/01 02:21:51;;;;;;;7.68;5.20;;;13.90;96.70;;;;;;4981744;28;20046;-70
2024/03/01 02:24:21;;;;;;;10.65;5.30;;;13.90;96.70;;;;;;4980837;28;20073;-71
2024/03/01 02:26:54;;;;;;;7.68;4.93;;;13.90;96.70;;;;;;4979616;28;20053;-72
2024/03/01 02:29:26;;;;;;;7.13;5.03;;;13.90;96.70;;;;;;4991059;28;20607;-71
2024/03/01 02:31:59;;;;;;;7.32;4.90;;;13.90;96.70;;;;;;4985243;28;20484;-72
2024/03/01 02:34:29;;;;;;;8.45;4.97;;;13.90;96.70;;;;;;4981795;28;20109;-71
2024/03/01 02:36:59;;;;;;;8.45;5.07;;;13.90;96.70;;;;;;4991143;28;20046;-71
2024/03/01 02:39:29;;;;;;;9.30;5.50;;;13.70;96.70;;;;;;4982140;28;20423;-71
2024/03/01 02:41:59;;;;;;;11.05;5.82;;;13.70;96.70;;;;;;4963412;28;20074;-71
2024/03/01 02:44:27;;;;;;;8.68;4.90;;;13.60;96.70;;;;;;4973314;28;20109;-71
2024/03/01 02:46:56;;;;;;;8.90;5.15;;;13.60;96.70;;;;;;4951099;28;20137;-71
2024/03/01 02:49:25;;;;;;;6.55;4.97;;;13.70;96.70;;;;;;4957331;28;20058;-71
2024/03/01 02:51:54;;;;;;;8.68;4.80;;;13.70;96.70;;;;;;4960733;28;20042;-71
2024/03/01 02:54:27;;;;;;;8.07;4.65;;;13.70;96.70;;;;;;4955934;28;20065;-71
2024/03/01 02:57:00;;;;;;;7.43;5.15;;;13.80;96.70;;;;;;4950549;28;20055;-71
2024/03/01 02:59:29;;;;;;;5.63;4.60;;;13.80;96.70;;;;;;4960385;28;20061;-71
2024/03/01 03:02:04;;;;;;;8.70;4.47;;;13.90;96.70;;;;;;4951964;28;20471;-71
2024/03/01 03:04:32;;;;;;;6.18;4.50;;;13.90;96.70;;;;;;4966473;28;20277;-71
2024/03/01 03:07:02;;;;;;;6.22;4.47;;;13.90;96.70;;;;;;4969113;28;20058;-71
2024/03/01 03:09:42;;;;;;;6.70;4.60;;;13.90;96.70;;;;;;4958044;28;20468;-71
2024/03/01 03:12:14;;;;;;;5.80;4.57;;;14.00;96.70;;;;;;4952745;28;20061;-71
2024/03/01 03:14:42;;;;;;;6.38;4.63;;;14.00;96.70;;;;;;4954241;28;20058;-71
2024/03/01 03:17:13;;;;;;;6.85;4.70;;;14.00;96.70;;;;;;4956176;28;20046;-71
2024/03/01 03:19:43;;;;;;;8.82;4.35;;;14.00;96.70;;;;;;4963554;28;20062;-71
2024/03/01 03:22:12;;;;;;;7.40;4.43;;;14.00;96.70;;;;;;4961137;28;21121;-71
2024/03/01 03:24:41;;;;;;;5.78;4.07;;;14.00;96.70;;;;;;4952722;28;20112;-71
2024/03/01 03:27:12;;;;;;;5.30;4.10;;;14.10;96.70;;;;;;4988248;28;20058;-71
2024/03/01 03:29:42;;;;;;;7.78;3.78;;;14.00;96.70;;;;;;4954713;28;20504;-71
2024/03/01 03:32:11;;;;;;;7.57;4.63;;;13.90;96.70;;;;;;4958961;28;20144;-70
2024/03/01 03:34:40;;;;;;;7.55;4.90;;;13.90;96.70;;;;;;4946126;28;20046;-71
2024/03/01 03:37:10;;;;;;;6.93;4.82;;;13.90;96.70;;;;;;4959355;28;20078;-71
2024/03/01 03:39:39;;;;;;;8.23;4.38;;;13.90;96.70;;;;;;4991089;28;20112;-71
2024/03/01 03:42:08;;;;;;;8.55;4.72;;;13.90;96.70;;;;;;4977468;28;20149;-71
2024/03/01 03:44:36;;;;;;;9.68;4.43;;;13.90;96.70;;;;;;4998748;28;20133;-70
2024/03/01 03:47:08;;;;;;;8.65;4.82;;;13.80;96.70;;;;;;4975958;28;20046;-71
2024/03/01 03:49:39;;;;;;;8.23;4.35;;;13.90;96.70;;;;;;4997402;28;20078;-71
2024/03/01 03:52:09;;;;;;;6.00;4.15;;;13.90;96.70;;;;;;4994567;28;20050;-71
2024/03/01 03:54:39;;;;;;;7.40;4.05;;;13.90;96.70;;;;;;4984873;28;20150;-71
2024/03/01 03:57:09;;;;;;;4.95;4.20;;;13.90;96.70;;;;;;4981524;28;20038;-71
2024/03/01 03:59:38;;;;;;;9.43;4.57;;;14.00;96.70;;;;;;4972180;28;20119;-71
2024/03/01 04:02:08;;;;;;;5.90;4.20;;;14.00;96.70;;;;;;4982393;28;20045;-71
2024/03/01 04:04:38;;;;;;;6.88;4.65;;;14.10;96.70;;;;;;4988111;28;20473;-71
2024/03/01 04:07:06;;;;;;;6.63;4.80;;;14.10;96.70;;;;;;4980758;28;20042;-71
2024/03/01 04:09:36;;;;;;;6.60;4.97;;;14.10;96.70;;;;;;4979202;28;20529;-71
2024/03/01 04:12:06;;;;;;;5.28;4.20;;;14.10;96.70;;;;;;4965473;28;20057;-71
2024/03/01 04:14:35;;;;;;;5.07;3.97;;;14.10;96.70;;;;;;4983182;28;20053;-70
2024/03/01 04:17:04;;;;;;;6.15;4.20;;;14.10;96.70;;;;;;4971531;28;20050;-71
2024/03/01 04:19:36;;;;;;;7.05;4.20;;;14.00;96.70;;;;;;4980806;28;20049;-71
2024/03/01 04:22:08;;;;;;;6.35;4.63;;;14.00;96.70;;;;;;4998155;28;20058;-71
2024/03/01 04:24:37;;;;;;;7.93;4.22;;;14.00;96.70;;;;;;4978217;28;20049;-71
2024/03/01 04:27:06;;;;;;;6.20;4.05;;;14.00;96.70;;;;;;4994360;28;20774;-71
2024/03/01 04:29:36;;;;;;;5.97;4.32;;;14.00;96.70;;;;;;5020010;28;20053;-71
2024/03/01 04:32:09;;;;;;;6.72;4.50;;;14.00;96.70;;;;;;4986056;28;20088;-71
2024/03/01 04:34:39;;;;;;;6.03;4.18;;;14.00;96.70;;;;;;4976904;28;20050;-71
2024/03/01 04:37:07;;;;;;;8.27;4.45;;;14.00;96.70;;;;;;5000497;28;20395;-72
2024/03/01 04:39:38;;;;;;;6.30;4.10;;;14.00;96.70;;;;;;4981746;28;20149;-71
2024/03/01 04:42:07;;;;;;;8.23;4.70;;;14.00;96.70;;;;;;4985775;28;20108;-71
2024/03/01 04:44:39;;;;;;;5.25;4.75;;;14.00;96.70;;;;;;4985665;28;20053;-71
2024/03/01 04:47:08;;;;;;;8.52;4.10;;;14.00;96.70;;;;;;4992284;28;20676;-71
2024/03/01 04:49:43;;;;;;;7.13;4.72;;;13.90;96.70;;;;;;4979259;28;20044;-71
2024/03/01 04:52:13;;;;;;;8.55;4.82;;;14.00;96.70;;;;;;4970229;28;20508;-71
2024/03/01 04:54:44;;;;;;;9.93;6.57;;;14.00;96.70;;;;;;4975786;28;20525;-71
2024/03/01 04:57:12;;;;;;;6.10;4.72;;;13.90;96.70;;;;;;4982256;28;20144;-71
2024/03/01 04:59:42;;;;;;;6.43;4.32;;;13.90;96.70;;;;;;4989066;28;20119;-71
2024/03/01 05:02:10;;;;;;;7.07;4.07;;;13.90;96.70;;;;;;4978493;28;20057;-71
2024/03/01 05:04:44;;;;;;;6.28;4.47;;;13.90;96.70;;;;;;4984060;28;20034;-72
2024/03/01 05:07:14;;;;;;;9.40;4.53;;;13.90;96.70;;;;;;4974264;28;20578;-71
2024/03/01 05:09:43;;;;;;;8.95;4.97;;;14.00;96.70;;;;;;4986413;28;20063;-71
2024/03/01 05:12:13;;;;;;;8.20;4.72;;;14.00;96.70;;;;;;4985167;28;20045;-72
2024/03/01 05:14:41;;;;;;;8.18;4.15;;;14.00;96.70;;;;;;4992799;28;20046;-71
2024/03/01 05:17:13;;;;;;;7.93;4.30;;;13.90;96.70;;;;;;5003294;28;20041;-71
2024/03/01 05:19:43;;;;;;;4.78;4.28;;;13.90;96.70;;;;;;5001131;28;20058;-71
2024/03/01 05:22:13;;;;;;;4.72;3.88;;;13.80;96.70;;;;;;4992026;28;20061;-71
2024/03/01 05:24:50;;;;;;;7.10;4.85;;;13.80;96.70;;;;;;5000131;28;20402;-71
2024/03/01 05:27:20;;;;;;;6.88;3.67;;;13.80;96.70;;;;;;5001546;28;20053;-71
2024/03/01 05:29:50;;;;;;;6.25;4.13;;;13.80;96.70;;;;;;4978366;28;20765;-71
2024/03/01 05:32:23;;;;;;;6.88;4.10;;;13.80;96.70;;;;;;4974023;28;20054;-71
2024/03/01 05:34:56;;;;;;;5.72;4.13;;;13.70;96.70;;;;;;4983430;28;20050;-70
2024/03/01 05:37:25;;;;;;;6.80;4.00;;;13.70;96.70;;;;;;4995921;28;20904;-72
2024/03/01 05:39:57;;;;;;;6.93;4.55;;;13.80;96.70;;;;;;4985777;28;20060;-70
2024/03/01 05:42:26;;;;;;;5.22;3.88;;;13.80;96.70;;;;;;4998591;28;20099;-71
2024/03/01 05:44:55;;;;;;;7.05;4.53;;;13.80;96.70;;;;;;4977454;28;20064;-72
2024/03/01 05:47:25;;;;;;;5.93;3.78;;;13.80;96.70;;;;;;4977965;28;20710;-71
2024/03/01 05:49:56;;;;;;;7.07;4.88;;;13.80;96.70;;;;;;4983054;28;20418;-71
2024/03/01 05:52:26;;;;;;;6.10;4.10;;;13.90;96.70;;;;;;4995561;28;20119;-71
2024/03/01 05:54:55;;;;;;;4.65;4.15;;;13.90;96.70;;;;;;4993895;28;20117;-71
2024/03/01 05:57:25;;;;;;;5.82;4.07;;;13.80;96.70;;;;;;4995248;28;20069;-71
2024/03/01 05:59:55;;;;;;;7.05;4.30;;;13.80;96.70;;;;;;4986287;28;20057;-72
2024/03/01 06:02:25;;;;;;;5.72;4.28;;;13.80;96.70;;;;;;4977275;28;20063;-71
2024/03/01 06:04:55;;;;;;;5.50;4.75;;;13.80;96.70;;;;;;4993719;28;20048;-71
2024/03/01 06:07:27;;;;;;;6.43;4.20;;;13.80;96.70;;;;;;4980997;28;20060;-71
2024/03/01 06:10:12;;;;;;;7.22;4.28;;;13.90;96.70;;;;;;4977368;28;20049;-71
2024/03/01 06:12:42;;;;;;;5.28;4.22;;;13.90;96.70;;;;;;4998416;28;20053;-71
2024/03/01 06:15:13;;;;;;;5.70;4.30;;;13.90;96.70;;;;;;5009313;28;20502;-71
2024/03/01 06:17:45;;;;;;;8.80;4.40;;;13.90;96.70;;;;;;4981468;28;20057;-71
2024/03/01 06:20:15;;;;;;;7.32;4.45;;;13.90;96.70;;;;;;4993897;28;21104;-71
2024/03/01 06:22:46;;;;;;;7.47;5.18;;;13.90;96.70;;;;;;4990898;28;20045;-71
2024/03/01 06:25:16;;;;;;;6.88;4.30;;;13.90;96.70;;;;;;4971944;28;20108;-71
2024/03/01 06:27:45;;;;;;;7.65;4.43;;;13.90;96.70;;;;;;4972032;28;20100;-69
2024/03/01 06:30:13;;;;;;;8.32;5.15;;;13.90;96.70;;;;;;5000422;28;20396;-69
2024/03/01 06:32:43;;;;;;;12.10;6.40;;;13.90;96.70;;;;;;5001591;28;20062;-70
2024/03/01 06:35:11;;;;;;;8.18;6.10;;;13.80;96.70;;;;;;4984397;28;20103;-70
2024/03/01 06:37:43;;;;;;;10.88;7.18;;;13.80;96.70;;;;;;4984996;28;20103;-70
2024/03/01 06:40:13;;;;;;;10.50;7.05;;;13.90;96.70;;;;;;4993989;28;20525;-70
2024/03/01 06:42:43;;;;;;;9.27;7.35;;;13.90;96.70;;;;;;4992509;28;20058;-70
2024/03/01 06:45:13;;;;;;;11.07;7.43;;;13.90;96.70;;;;;;4974667;28;20061;-70
2024/03/01 06:47:42;;;;;;;10.23;7.22;;;13.90;96.70;;;;;;4988437;28;20070;-70
2024/03/01 06:50:11;;;;;;;10.10;9.05;;;13.90;96.70;;;;;;4984392;28;20049;-70
2024/03/01 06:52:43;;;;;;;14.80;10.70;;;13.90;96.70;;;;;;4982214;28;20117;-70
2024/03/01 06:55:14;;;;;;;25.85;17.10;;;13.90;96.70;;;;;;4978433;28;20055;-70
2024/03/01 06:57:43;;;;;;;32.63;22.85;;;13.80;96.70;;;;;;4976728;28;20046;-70
2024/03/01 07:00:13;;;;;;;18.33;12.38;;;13.90;96.70;;;;;;4988006;28;20057;-71
2024/03/01 07:02:43;;;;;;;12.77;9.43;;;13.90;96.70;;;;;;4974246;28;20046;-70
2024/03/01 07:05:14;;;;;;;12.93;9.45;;;13.90;96.70;;;;;;4976767;28;20042;-70
2024/03/01 07:07:45;;;;;;;10.43;8.05;;;13.90;96.70;;;;;;4984087;28;20467;-70
2024/03/01 07:10:15;;;;;;;11.55;7.30;;;13.90;96.70;;;;;;4973480;28;20456;-70
2024/03/01 07:12:44;;;;;;;8.68;6.53;;;13.90;96.70;;;;;;4992851;28;20049;-70
2024/03/01 07:15:15;;;;;;;11.20;7.60;;;13.90;96.70;;;;;;4973387;28;20050;-71
2024/03/01 07:17:43;;;;;;;12.65;8.05;;;13.90;96.70;;;;;;4972321;28;20053;-71
2024/03/01 07:20:16;;;;;;;7.70;6.90;;;13.90;96.70;;;;;;4973174;28;20077;-71
2024/03/01 07:22:47;;;;;;;6.95;6.25;;;13.90;96.70;;;;;;4980823;28;20058;-71
2024/03/01 07:25:17;;;;;;;9.90;6.47;;;13.90;96.70;;;;;;4988631;28;20623;-71
2024/03/01 07:27:46;;;;;;;9.57;6.45;;;14.00;96.70;;;;;;4988232;28;20613;-71
2024/03/01 07:30:15;;;;;;;8.43;6.30;;;13.90;96.70;;;;;;4972538;28;20557;-71
2024/03/01 07:32:44;;;;;;;9.65;6.65;;;13.90;96.70;;;;;;4974622;28;20058;-70
2024/03/01 07:35:14;;;;;;;8.57;5.35;;;13.90;96.70;;;;;;4965395;28;20054;-70
2024/03/01 07:37:45;;;;;;;12.40;8.50;;;13.90;96.70;;;;;;4984116;28;20049;-70
2024/03/01 07:40:14;;;;;;;9.45;7.40;;;13.90;96.70;;;;;;4979567;28;20077;-71
2024/03/01 07:42:44;;;;;;;9.85;6.13;;;13.90;96.70;;;;;;4967934;28;20145;-70
2024/03/01 07:45:12;;;;;;;6.45;5.85;;;13.90;96.70;;;;;;4988501;28;20038;-71
2024/03/01 07:47:43;;;;;;;7.30;6.07;;;13.90;96.70;;;;;;4972940;28;20104;-71
2024/03/01 07:50:13;;;;;;;6.90;5.18;;;13.90;96.70;;;;;;4992646;28;20076;-71
2024/03/01 07:52:42;;;;;;;7.97;5.22;;;13.90;96.70;;;;;;4979717;28;20113;-71
2024/03/01 07:55:17;;;;;;;5.63;5.10;;;13.90;96.70;;;;;;4972011;28;20133;-71
2024/03/01 07:57:48;;;;;;;6.50;5.35;;;14.00;96.70;;;;;;4968169;28;20869;-71
2024/03/01 08:00:19;;;;;;;6.32;5.25;;;14.10;96.70;;;;;;4985564;28;20056;-71
2024/03/01 08:02:51;;;;;;;9.30;5.60;;;14.10;96.70;;;;;;4968874;28;20134;-71
2024/03/01 08:05:21;;;;;;;9.13;5.38;;;14.10;96.70;;;;;;4973538;28;20046;-71
2024/03/01 08:07:50;;;;;;;8.52;6.05;;;14.10;96.70;;;;;;4989932;28;21015;-71
2024/03/01 08:10:22;;;;;;;8.13;6.40;;;14.20;96.70;;;;;;4997155;28;20553;-71
2024/03/01 08:12:51;;;;;;;11.40;7.68;;;14.20;96.70;;;;;;4989949;28;20046;-71
2024/03/01 08:15:28;;;;;;;11.15;7.80;;;14.20;96.70;;;;;;4994351;28;20133;-71
2024/03/01 08:17:59;;;;;;;9.90;8.63;;;14.20;96.70;;;;;;4992662;28;20050;-71
2024/03/01 08:20:55;;;;;;;14.35;9.77;;;14.30;96.70;;;;;;4972941;28;20112;-70
2024/03/01 08:23:26;;;;;;;11.02;9.52;;;14.20;96.70;;;;;;4985299;28;20085;-71
2024/03/01 08:25:58;;;;;;;11.32;8.65;;;14.30;96.70;;;;;;4979843;28;20053;-71
2024/03/01 08:28:30;;;;;;;9.20;8.30;;;14.30;96.70;;;;;;4964563;28;20057;-71
2024/03/01 08:31:05;;;;;;;10.55;8.63;;;14.30;96.70;;;;;;4979280;28;20070;-71
2024/03/01 08:33:39;;;;;;;10.63;8.90;;;14.30;96.70;;;;;;4979854;28;20131;-70
2024/03/01 08:36:09;;;;;;;11.77;8.60;;;14.40;96.70;;;;;;4969977;28;20530;-71
2024/03/01 08:39:01;;;;;;;9.98;8.65;;;14.40;96.70;;;;;;4989473;28;20856;-70
2024/03/01 08:41:31;;;;;;;11.98;8.55;;;14.50;96.70;;;;;;4976123;28;20049;-70
2024/03/01 08:44:00;;;;;;;11.45;8.55;;;14.50;96.70;;;;;;4982424;28;20046;-70
2024/03/01 08:46:34;;;;;;;17.92;9.05;;;14.40;96.70;;;;;;4983766;28;20041;-70
2024/03/01 08:49:57;;;;;;;15.82;10.15;;;14.50;96.70;;;;;;4995117;28;20389;-70
2024/03/01 08:52:33;;;;;;;13.15;9.65;;;14.60;96.70;;;;;;4989444;28;20073;-70
2024/03/01 08:55:40;;;;;;;18.65;14.55;;;14.60;96.70;;;;;;4977619;28;20630;-70
2024/03/01 08:58:23;;;;;;;26.70;21.60;;;14.60;96.70;;;;;;4988594;28;20060;-70
2024/03/01 09:00:53;;;;;;;26.95;20.65;;;14.60;96.70;;;;;;4980650;28;21488;-70
2024/03/01 09:03:24;;;;;;;23.38;17.27;;;14.60;96.70;;;;;;4998233;28;20069;-70
2024/03/01 09:05:56;;;;;;;20.15;15.20;;;14.60;96.70;;;;;;4976065;28;20052;-70
2024/03/01 09:08:30;;;;;;;23.95;14.63;;;14.50;96.70;;;;;;4988518;28;20534;-71
2024/03/01 09:10:59;;;;;;;19.98;15.20;;;14.60;96.70;;;;;;4976355;28;20054;-70
2024/03/01 09:13:31;;;;;;;21.38;15.20;;;14.60;96.70;;;;;;4991648;28;20427;-70
2024/03/01 09:16:00;;;;;;;19.00;13.65;;;14.60;96.70;;;;;;4978275;28;20356;-70
2024/03/01 09:18:55;;;;;;;15.60;12.55;;;14.60;96.70;;;;;;5011734;28;20115;-70
2024/03/01 09:21:41;;;;;;;11.00;9.45;;;14.50;96.70;;;;;;4981879;28;20240;-71
2024/03/01 09:24:13;;;;;;;13.48;8.75;;;14.50;96.70;;;;;;5010953;28;20041;-71
2024/03/01 09:26:42;;;;;;;8.82;7.72;;;14.40;96.70;;;;;;4987356;28;20050;-70
2024/03/01 09:29:31;;;;;;;8.25;6.43;;;14.40;96.70;;;;;;4999053;28;20793;-70
2024/03/01 09:31:59;;;;;;;8.07;5.85;;;14.40;96.70;;;;;;4986335;28;20062;-71
2024/03/01 09:34:34;;;;;;;8.45;7.05;;;14.40;96.70;;;;;;4977611;28;20052;-70
2024/03/01 09:37:07;;;;;;;9.25;7.38;;;14.40;96.70;;;;;;4975946;28;20054;-70
2024/03/01 09:39:38;;;;;;;8.48;7.03;;;14.30;96.70;;;;;;4972613;28;20061;-71
2024/03/01 09:42:19;;;;;;;11.25;8.50;;;14.30;96.70;;;;;;4993780;28;20829;-70
2024/03/01 09:45:07;;;;;;;11.00;8.15;;;14.40;96.70;;;;;;4993788;28;20058;-70
2024/03/01 09:47:51;;;;;;;7.80;5.45;;;14.40;96.70;;;;;;5012530;28;20045;-70
2024/03/01 09:50:33;;;;;;;5.05;4.10;;;14.40;96.70;;;;;;4975556;28;20108;-71
2024/03/01 09:53:14;;;;;;;5.65;4.20;;;14.40;96.70;;;;;;5024601;28;20061;-71
2024/03/01 09:55:51;;;;;;;5.13;3.10;;;14.40;96.70;;;;;;4980394;28;20496;-70
2024/03/01 09:58:34;;;;;;;3.42;2.80;;;14.40;96.70;;;;;;4994770;28;20108;-71
2024/03/01 10:01:12;;;;;;;2.90;2.55;;;14.40;96.70;;;;;;4993957;28;20058;-70
2024/03/01 10:03:51;;;;;;;3.88;2.55;;;14.40;96.70;;;;;;5009655;28;20501;-70
2024/03/01 10:06:48;;;;;;;2.28;1.88;;;14.30;96.70;;;;;;5001321;28;20060;-70
2024/03/01 10:09:24;;;;;;;3.45;1.85;;;14.30;96.70;;;;;;4972523;28;20114;-70
2024/03/01 10:12:06;;;;;;;2.30;1.73;;;14.30;96.70;;;;;;4993702;28;20103;-70
2024/03/01 10:14:49;;;;;;;1.27;0.80;;;14.20;96.70;;;;;;5021634;28;20549;-70
2024/03/01 10:17:32;;;;;;;0.90;0.50;;;14.20;96.70;;;;;;4983091;28;20118;-70
2024/03/01 10:20:19;;;;;;;1.45;0.52;;;14.00;96.70;;;;;;4982432;28;20053;-71
2024/03/01 10:23:05;;;;;;;6.78;3.45;;;13.90;96.70;;;;;;4992957;28;20148;-70
2024/03/01 10:25:45;;;;;;;1.63;0.83;;;14.00;96.70;;;;;;5000465;28;20049;-71
2024/03/01 10:28:31;;;;;;;1.70;0.60;;;14.00;96.70;;;;;;4982029;28;20062;-70
2024/03/01 10:31:10;;;;;;;1.60;0.52;;;13.90;96.70;;;;;;4975022;28;20143;-71
2024/03/01 10:33:52;;;;;;;2.72;0.60;;;13.90;96.70;;;;;;5007863;28;20534;-71
2024/03/01 10:36:34;;;;;;;1.48;0.65;;;13.90;96.70;;;;;;4985907;28;20552;-71
2024/03/01 10:39:08;;;;;;;2.13;0.70;;;13.90;96.70;;;;;;4990048;28;20795;-70
2024/03/01 10:41:47;;;;;;;2.60;0.55;;;13.90;96.70;;;;;;5007608;28;20468;-71
2024/03/01 10:44:22;;;;;;;2.33;0.60;;;13.90;96.70;;;;;;5000064;28;20053;-71
2024/03/01 10:46:59;;;;;;;2.05;0.60;;;14.00;96.70;;;;;;4999084;28;20057;-71
2024/03/01 10:49:44;;;;;;;2.47;0.52;;;14.10;96.70;;;;;;4998366;28;20053;-71
2024/03/01 10:52:18;;;;;;;2.72;0.60;;;14.10;96.70;;;;;;4993607;28;20728;-71
2024/03/01 10:54:51;;;;;;;1.73;0.70;;;14.00;96.70;;;;;;4991327;28;20049;-70
2024/03/01 10:57:21;;;;;;;3.38;0.85;;;14.00;96.70;;;;;;4981683;28;20049;-71
2024/03/01 10:59:56;;;;;;;3.38;0.93;;;14.00;96.70;;;;;;4990832;28;20056;-71
2024/03/01 11:02:29;;;;;;;5.10;1.35;;;14.00;96.70;;;;;;4981025;28;20093;-71
2024/03/01 11:05:09;;;;;;;2.33;0.65;;;14.10;96.70;;;;;;4985783;28;20683;-70
2024/03/01 11:07:49;;;;;;;2.67;0.70;;;14.10;96.70;;;;;;4984532;28;20741;-70
2024/03/01 11:10:25;;;;;;;2.35;0.80;;;14.10;96.70;;;;;;4981225;28;20054;-71
2024/03/01 11:12:59;;;;;;;2.25;0.98;;;14.20;96.70;;;;;;4984535;28;20140;-71
2024/03/01 11:15:30;;;;;;;2.35;1.15;;;14.20;96.70;;;;;;4990007;28;20168;-71
2024/03/01 11:18:02;;;;;;;2.63;1.00;;;14.20;96.70;;;;;;4991367;28;20050;-71
2024/03/01 11:20:40;;;;;;;1.40;0.63;;;14.30;96.70;;;;;;4976064;28;20060;-71
2024/03/01 11:23:16;;;;;;;2.05;0.70;;;14.30;96.70;;;;;;4983522;28;20080;-71
2024/03/01 11:25:52;;;;;;;3.22;0.60;;;14.20;96.70;;;;;;4990353;28;20060;-71
2024/03/01 11:28:24;;;;;;;3.85;1.02;;;14.20;96.70;;;;;;4999272;28;20103;-72
2024/03/01 11:31:01;;;;;;;2.83;0.85;;;14.20;96.70;;;;;;4982958;28;20064;-72
2024/03/01 11:33:34;;;;;;;3.97;1.35;;;14.10;96.70;;;;;;4995431;28;20127;-71
2024/03/01 11:36:16;;;;;;;4.03;1.38;;;13.90;96.70;;;;;;4989533;28;20587;-71
2024/03/01 11:38:58;;;;;;;3.67;0.73;;;13.90;96.70;;;;;;5004902;28;20541;-71
2024/03/01 11:41:39;;;;;;;3.95;1.40;;;13.90;96.70;;;;;;5003886;28;20049;-70
2024/03/01 11:44:37;;;;;;;5.05;2.25;;;13.90;96.70;;;;;;5001764;28;20057;-71
2024/03/01 11:47:17;;;;;;;2.58;1.05;;;13.80;96.70;;;;;;4998994;28;20615;-71
2024/03/01 11:50:03;;;;;;;3.22;0.80;;;13.80;96.70;;;;;;4997952;28;20053;-71
2024/03/01 11:52:52;;;;;;;1.98;0.80;;;13.80;96.70;;;;;;4993737;28;20056;-70
2024/03/01 11:55:35;;;;;;;1.92;0.70;;;13.80;96.70;;;;;;4992232;28;20042;-71
2024/03/01 11:58:25;;;;;;;6.68;1.38;;;13.90;96.70;;;;;;4990578;28;20057;-70
2024/03/01 12:01:11;;;;;;;2.42;0.75;;;13.90;96.70;;;;;;4992115;28;20099;-71
2024/03/01 12:04:03;;;;;;;3.75;1.33;;;13.90;96.70;;;;;;4998286;28;20057;-71
2024/03/01 12:07:07;;;;;;;5.70;1.10;;;13.80;96.70;;;;;;4968526;28;20100;-70
2024/03/01 12:09:53;;;;;;;3.33;0.75;;;13.90;96.70;;;;;;4962846;28;20128;-70
2024/03/01 12:12:32;;;;;;;2.60;0.80;;;14.10;96.70;;;;;;4986296;28;20049;-71
2024/03/01 12:15:06;;;;;;;1.77;0.95;;;14.10;96.70;;;;;;4989444;28;20053;-71
2024/03/01 12:17:44;;;;;;;1.05;0.60;;;14.00;96.70;;;;;;4989412;28;20467;-71
2024/03/01 12:20:14;;;;;;;2.38;0.57;;;14.00;96.70;;;;;;4981371;28;20635;-71
2024/03/01 12:23:00;;;;;;;4.35;1.40;;;14.00;96.70;;;;;;4976631;28;20038;-71
2024/03/01 12:25:30;;;;;;;2.70;0.80;;;14.00;96.70;;;;;;4980892;28;20105;-71
2024/03/01 12:28:12;;;;;;;2.70;1.27;;;14.00;96.70;;;;;;4998749;28;20088;-71
2024/03/01 12:30:53;;;;;;;3.65;1.23;;;13.90;96.70;;;;;;4996947;28;20045;-71
2024/03/01 12:33:33;;;;;;;3.75;1.30;;;13.90;96.70;;;;;;4975127;28;20054;-71
2024/03/01 12:36:12;;;;;;;3.38;1.25;;;13.90;96.70;;;;;;4983529;28;20091;-71
2024/03/01 12:38:45;;;;;;;4.25;0.80;;;14.10;96.70;;;;;;4972640;28;20045;-70
2024/03/01 12:41:30;;;;;;;2.88;0.70;;;14.00;96.70;;;;;;4979673;28;20061;-71
2024/03/01 12:44:13;;;;;;;3.40;0.70;;;14.10;96.70;;;;;;4979702;28;20050;-72
2024/03/01 12:47:02;;;;;;;2.97;1.10;;;14.10;96.70;;;;;;4978006;28;20791;-72
2024/03/01 12:49:37;;;;;;;3.10;0.60;;;14.10;96.70;;;;;;5011158;28;20147;-71
2024/03/01 12:52:19;;;;;;;5.78;3.38;;;14.10;96.70;;;;;;4985233;28;20446;-71
2024/03/01 12:54:58;;;;;;;20.08;11.18;;;14.10;96.70;;;;;;4981929;28;20049;-71
2024/03/01 12:57:45;;;;;;;18.02;10.95;;;14.10;96.70;;;;;;5008503;28;20069;-71
2024/03/01 13:00:24;;;;;;;5.22;1.92;;;14.20;96.70;;;;;;4970413;28;20078;-71
2024/03/01 13:03:07;;;;;;;3.72;1.58;;;14.10;96.70;;;;;;4977899;28;20124;-71
2024/03/01 13:05:39;;;;;;;3.13;1.65;;;14.20;96.70;;;;;;4978042;28;20096;-71
2024/03/01 13:08:17;;;;;;;3.97;1.50;;;14.20;96.70;;;;;;4976941;28;20093;-71
2024/03/01 13:10:46;;;;;;;3.47;1.20;;;14.20;96.70;;;;;;4979561;28;20058;-71
2024/03/01 13:13:23;;;;;;;2.38;1.00;;;14.30;96.70;;;;;;4974533;28;20074;-71
2024/03/01 13:16:08;;;;;;;6.80;2.22;;;14.40;96.70;;;;;;4992500;28;20089;-71
2024/03/01 13:18:43;;;;;;;4.35;1.88;;;14.30;96.70;;;;;;4992159;28;20065;-71